createdAt,value
2022-08-25T05:01:20.535Z,60.19
2022-08-25T05:03:59.453Z,56.71
2022-08-25T05:06:29.851Z,55.21
2022-08-25T05:09:00.148Z,57.69
2022-08-25T05:11:31.884Z,64.71
2022-08-25T05:17:20.403Z,62.17
2022-08-25T05:19:54.686Z,57.76
2022-08-25T05:22:26.650Z,56.44
2022-08-25T05:24:54.404Z,57.57
2022-08-25T05:27:24.012Z,64.18
2022-08-25T05:29:51.680Z,65.29
2022-08-25T05:32:20.484Z,62.14
2022-08-25T05:34:48.434Z,58.13
2022-08-25T05:37:16.205Z,56.52
2022-08-25T05:39:49.741Z,57.84
2022-08-25T05:42:17.579Z,63.86
2022-08-25T05:44:47.387Z,64.77
2022-08-25T05:47:15.459Z,62.24
2022-08-25T05:49:43.628Z,57.76
2022-08-25T05:52:16.454Z,56.27
2022-08-25T05:54:46.951Z,57.46
2022-08-25T05:57:14.701Z,64.03
2022-08-25T05:59:42.279Z,64.49
2022-08-25T06:02:28.879Z,61.36
2022-08-25T06:04:58.684Z,57.20
2022-08-25T06:07:27.783Z,55.94
2022-08-25T06:09:57.819Z,58.16
2022-08-25T06:12:32.421Z,64.79
2022-08-25T06:15:04.753Z,65.33
2022-08-25T06:17:40.553Z,62.31
2022-08-25T06:20:14.614Z,58.16
2022-08-25T06:22:43.663Z,56.61
2022-08-25T06:25:15.956Z,58.02
2022-08-25T06:27:43.608Z,59.36
2022-08-25T06:30:24.061Z,65.67
2022-08-25T06:32:54.691Z,65.85
2022-08-25T06:35:22.866Z,63.01
2022-08-25T06:38:24.118Z,60.77
2022-08-25T06:40:52.900Z,57.18
2022-08-25T06:43:21.647Z,56.72
2022-08-25T06:45:50.369Z,58.71
2022-08-25T06:48:18.249Z,65.63
2022-08-25T06:50:46.092Z,65.91
2022-08-25T06:53:13.654Z,62.47
2022-08-25T06:55:41.633Z,60.54
2022-08-25T06:58:10.287Z,57.33
2022-08-25T07:00:41.091Z,56.01
2022-08-25T07:03:09.950Z,58.20
2022-08-25T07:05:43.957Z,64.28
2022-08-25T07:08:11.696Z,64.48
2022-08-25T07:10:40.517Z,62.81
2022-08-25T07:13:11.444Z,61.30
2022-08-25T07:15:44.040Z,57.57
2022-08-25T07:18:15.737Z,56.21
2022-08-25T07:20:43.257Z,58.04
2022-08-25T07:23:10.813Z,63.07
2022-08-25T07:25:39.591Z,65.18
2022-08-25T07:28:09.287Z,62.84
2022-08-25T07:30:38.305Z,60.91
2022-08-25T07:33:07.182Z,56.95
2022-08-25T07:35:38.474Z,55.98
2022-08-25T07:38:10.154Z,57.34
2022-08-25T07:40:42.701Z,62.81
2022-08-25T07:43:10.954Z,64.62
2022-08-25T07:45:43.875Z,62.25
2022-08-25T07:48:20.507Z,60.89
2022-08-25T07:50:49.248Z,57.64
2022-08-25T07:53:18.176Z,56.54
2022-08-25T07:55:47.296Z,58.08
2022-08-25T07:58:15.870Z,63.62
2022-08-25T08:00:48.578Z,64.97
2022-08-25T08:03:42.169Z,62.28
2022-08-25T08:06:12.602Z,57.26
2022-08-25T08:08:45.148Z,56.03
2022-08-25T08:11:45.148Z,56.88
2022-08-25T08:14:19.370Z,57.76
2022-08-25T08:16:55.015Z,64.66
2022-08-25T08:19:24.809Z,64.90
2022-08-25T08:21:54.252Z,62.06
2022-08-25T08:24:56.075Z,59.21
2022-08-25T08:27:27.341Z,57.79
2022-08-25T08:29:56.330Z,59.06
2022-08-25T08:32:36.700Z,64.61
2022-08-25T08:35:19.601Z,65.23
2022-08-25T08:37:49.627Z,62.01
2022-08-25T08:40:23.184Z,58.63
2022-08-25T08:43:18.244Z,57.62
2022-08-25T08:45:53.708Z,59.09
2022-08-25T08:49:05.485Z,65.77
2022-08-25T08:51:51.144Z,66.47
2022-08-25T08:54:25.078Z,62.91
2022-08-25T08:57:27.043Z,61.65
2022-08-25T09:00:01.938Z,58.04
2022-08-25T09:02:51.733Z,57.73
2022-08-25T09:05:28.756Z,59.44
2022-08-25T09:08:12.148Z,65.17
2022-08-25T09:11:19.350Z,65.11
2022-08-25T09:14:09.282Z,61.24
2022-08-25T09:17:17.449Z,56.23
2022-08-25T09:20:18.859Z,54.28
2022-08-25T09:23:10.113Z,55.06
2022-08-25T09:25:56.724Z,56.62
2022-08-25T09:28:51.419Z,58.33
2022-08-25T09:31:35.230Z,59.71
2022-08-25T09:34:32.519Z,66.61
2022-08-25T09:37:02.940Z,64.37
2022-08-25T09:39:31.626Z,59.58
2022-08-25T09:42:00.939Z,56.36
2022-08-25T09:44:43.816Z,56.66
2022-08-25T09:47:30.115Z,57.72
2022-08-25T09:50:05.486Z,59.40
2022-08-25T09:52:41.118Z,59.34
2022-08-25T09:55:13.733Z,60.88
2022-08-25T09:57:42.924Z,66.65
2022-08-25T10:00:34.194Z,64.91
2022-08-25T10:03:22.709Z,57.65
2022-08-25T10:06:04.793Z,54.93
2022-08-25T10:08:52.848Z,55.25
2022-08-25T10:11:46.902Z,56.52
2022-08-25T10:14:46.941Z,57.93
2022-08-25T10:17:27.574Z,57.82
2022-08-25T10:20:35.167Z,58.62
2022-08-25T10:23:18.014Z,65.57
2022-08-25T10:25:59.468Z,64.87
2022-08-25T10:28:55.523Z,57.57
2022-08-25T10:32:16.742Z,55.10
2022-08-25T10:34:56.602Z,56.37
2022-08-25T10:37:38.492Z,57.35
2022-08-25T10:40:27.854Z,57.64
2022-08-25T10:43:33.737Z,60.18
2022-08-25T10:46:32.406Z,58.27
2022-08-25T10:49:42.257Z,59.61
2022-08-25T10:52:31.540Z,59.02
2022-08-25T10:55:13.427Z,59.49
2022-08-25T10:57:56.038Z,59.16
2022-08-25T11:00:38.348Z,60.08
2022-08-25T11:03:22.812Z,61.74
2022-08-25T11:06:05.219Z,66.49
2022-08-25T11:08:59.513Z,58.87
2022-08-25T11:11:52.773Z,54.97
2022-08-25T11:14:42.713Z,55.91
2022-08-25T11:17:24.427Z,56.81
2022-08-25T11:20:16.366Z,56.68
2022-08-25T11:23:14.650Z,55.83
2022-08-25T11:25:47.764Z,58.17
2022-08-25T11:28:30.653Z,57.55
2022-08-25T11:31:01.576Z,57.48
2022-08-25T11:33:31.618Z,57.17
2022-08-25T11:36:32.464Z,58.25
2022-08-25T11:39:54.019Z,59.02
2022-08-25T11:43:12.234Z,59.52
2022-08-25T11:46:27.833Z,59.63
2022-08-25T11:49:58.152Z,59.55
2022-08-25T11:52:34.599Z,69.20
2022-08-25T11:55:47.016Z,58.92
2022-08-25T11:58:50.743Z,54.92
2022-08-25T12:01:45.233Z,54.50
2022-08-25T12:04:44.517Z,55.40
2022-08-25T12:07:40.983Z,55.65
2022-08-25T12:10:12.789Z,55.33
2022-08-25T12:12:44.174Z,55.83
2022-08-25T12:15:31.717Z,57.10
2022-08-25T12:18:40.140Z,57.18
2022-08-25T12:21:31.553Z,56.93
2022-08-25T12:24:01.769Z,55.92
2022-08-25T12:26:48.374Z,56.31
2022-08-25T12:29:22.593Z,57.91
2022-08-25T12:32:35.866Z,57.42
2022-08-25T12:35:37.788Z,57.90
2022-08-25T12:38:18.962Z,57.27
2022-08-25T12:40:46.723Z,57.20
2022-08-25T12:43:37.275Z,56.65
2022-08-25T12:46:23.083Z,57.74
2022-08-25T12:49:29.589Z,57.36
2022-08-25T12:52:19.180Z,57.56
2022-08-25T12:54:59.127Z,56.70
2022-08-25T12:58:00.626Z,57.46
2022-08-25T13:01:32.973Z,58.23
2022-08-25T13:04:23.884Z,58.60
2022-08-25T13:07:46.109Z,56.81
2022-08-25T13:10:38.885Z,57.47
2022-08-25T13:14:14.828Z,58.14
2022-08-25T13:16:58.737Z,58.09
2022-08-25T13:19:34.796Z,57.82
2022-08-25T13:22:18.260Z,57.76
2022-08-25T13:24:51.772Z,56.93
2022-08-25T13:27:28.416Z,56.95
2022-08-25T13:30:03.534Z,56.68
2022-08-25T13:32:36.627Z,57.28
2022-08-25T13:35:32.515Z,57.70
2022-08-25T13:38:16.355Z,57.37
2022-08-25T13:40:44.760Z,57.02
2022-08-25T13:43:16.764Z,57.85
2022-08-25T13:45:53.352Z,57.82
2022-08-25T13:48:49.162Z,58.15
2022-08-25T13:51:31.268Z,57.75
2022-08-25T13:54:05.950Z,57.96
2022-08-25T13:56:40.954Z,58.49
2022-08-25T13:59:40.072Z,58.20
2022-08-25T14:02:15.174Z,58.32
2022-08-25T14:04:51.559Z,57.30
2022-08-25T14:07:34.228Z,57.73
2022-08-25T14:10:30.257Z,56.32
2022-08-25T14:13:32.335Z,56.75
2022-08-25T14:16:25.438Z,57.50
2022-08-25T14:19:00.395Z,57.49
2022-08-25T14:21:32.145Z,57.07
2022-08-25T14:24:04.151Z,56.93
2022-08-25T14:26:32.115Z,56.38
2022-08-25T14:29:01.129Z,56.37
2022-08-25T14:31:39.056Z,56.81
2022-08-25T14:34:22.744Z,56.93
2022-08-25T14:36:52.174Z,57.15
2022-08-25T14:39:22.603Z,56.75
2022-08-25T14:41:53.291Z,56.11
2022-08-25T14:44:23.775Z,56.15
2022-08-25T14:46:56.834Z,56.60
2022-08-25T14:49:33.682Z,56.63
2022-08-25T14:52:36.008Z,56.35
2022-08-25T14:55:04.183Z,56.43
2022-08-25T14:57:31.937Z,56.15
2022-08-25T15:00:00.515Z,56.38
2022-08-25T15:02:33.431Z,56.56
2022-08-25T15:05:28.803Z,56.91
2022-08-25T15:08:15.958Z,56.86
2022-08-25T15:10:45.232Z,56.96
2022-08-25T15:13:14.296Z,56.82
2022-08-25T15:15:52.627Z,56.73
2022-08-25T15:18:23.170Z,57.18
2022-08-25T15:20:51.458Z,57.57
2022-08-25T15:23:21.048Z,58.15
2022-08-25T15:25:52.684Z,58.13
2022-08-25T15:28:22.221Z,57.55
2022-08-25T15:30:50.855Z,57.31
2022-08-25T15:33:18.784Z,57.62
2022-08-25T15:35:46.345Z,58.21
2022-08-25T15:38:20.549Z,58.59
2022-08-25T15:40:50.372Z,58.72
2022-08-25T15:43:19.046Z,58.93
2022-08-25T15:45:51.017Z,58.96
2022-08-25T15:48:18.564Z,58.98
2022-08-25T15:50:49.010Z,59.32
2022-08-25T15:53:18.191Z,59.82
2022-08-25T15:55:46.373Z,60.09
2022-08-25T15:58:17.253Z,59.96
2022-08-25T16:00:56.336Z,60.07
2022-08-25T16:03:27.381Z,60.01
2022-08-25T16:05:57.803Z,60.33
2022-08-25T16:08:26.507Z,60.65
2022-08-25T16:10:55.483Z,60.60
2022-08-25T16:13:27.906Z,60.73
2022-08-25T16:15:58.018Z,60.77
2022-08-25T16:18:27.277Z,61.13
2022-08-25T16:20:55.661Z,61.04
2022-08-25T16:23:24.397Z,61.39
2022-08-25T16:25:52.334Z,61.27
2022-08-25T16:28:24.461Z,61.03
2022-08-25T16:30:53.689Z,61.15
2022-08-25T16:33:23.593Z,61.19
2022-08-25T16:35:51.461Z,61.28
2022-08-25T16:38:22.208Z,61.36
2022-08-25T16:40:50.989Z,61.60
2022-08-25T16:43:19.385Z,61.50
2022-08-25T16:45:47.027Z,61.73
2022-08-25T16:48:20.636Z,61.77
2022-08-25T16:50:50.350Z,62.05
2022-08-25T16:53:36.741Z,67.98
2022-08-25T16:56:08.551Z,68.87
2022-08-25T16:58:38.931Z,60.62
2022-08-25T17:01:12.702Z,56.94
2022-08-25T17:03:44.310Z,57.04
2022-08-25T17:06:13.917Z,57.64
2022-08-25T17:08:41.768Z,58.51
2022-08-25T17:11:28.068Z,59.28
2022-08-25T17:13:59.563Z,59.97
2022-08-25T17:16:31.912Z,60.79
2022-08-25T17:19:08.744Z,67.67
2022-08-25T17:21:45.293Z,67.33
2022-08-25T17:24:14.230Z,60.30
2022-08-25T17:26:47.608Z,56.88
2022-08-25T17:29:19.389Z,57.28
2022-08-25T17:31:51.252Z,58.47
2022-08-25T17:34:23.068Z,59.58
2022-08-25T17:36:53.482Z,60.81
2022-08-25T17:39:22.738Z,67.63
2022-08-25T17:41:54.493Z,66.98
2022-08-25T17:44:22.354Z,63.18
2022-08-25T17:46:52.987Z,59.03
2022-08-25T17:49:22.391Z,57.44
2022-08-25T17:51:54.367Z,58.25
2022-08-25T17:54:22.439Z,59.60
2022-08-25T17:56:49.993Z,65.30
2022-08-25T17:59:18.887Z,65.43
2022-08-25T18:01:55.301Z,63.02
2022-08-25T18:04:23.638Z,59.15
2022-08-25T18:06:55.106Z,57.36
2022-08-25T18:09:22.750Z,58.35
2022-08-25T18:11:52.559Z,59.84
2022-08-25T18:14:25.540Z,65.61
2022-08-25T18:16:54.107Z,65.76
2022-08-25T18:19:21.889Z,63.36
2022-08-25T18:21:56.511Z,62.36
2022-08-25T18:24:24.099Z,62.24
2022-08-25T18:26:52.045Z,58.40
2022-08-25T18:29:21.134Z,57.30
2022-08-25T18:31:53.611Z,58.69
2022-08-25T18:34:25.284Z,64.73
2022-08-25T18:36:53.039Z,65.16
2022-08-25T18:39:42.926Z,62.87
2022-08-25T18:42:11.818Z,62.22
2022-08-25T18:44:41.941Z,58.38
2022-08-25T18:47:14.414Z,56.81
2022-08-25T18:49:42.679Z,58.43
2022-08-25T18:52:10.236Z,64.48
2022-08-25T18:54:39.706Z,65.64
2022-08-25T18:57:08.167Z,63.14
2022-08-25T18:59:37.132Z,61.48
2022-08-25T19:02:06.951Z,58.06
2022-08-25T19:04:40.938Z,56.76
2022-08-25T19:07:11.966Z,58.29
2022-08-25T19:09:39.755Z,64.87
2022-08-25T19:12:11.815Z,65.00
2022-08-25T19:14:51.468Z,63.28
2022-08-25T19:17:19.725Z,58.80
2022-08-25T19:19:52.528Z,56.97
2022-08-25T19:22:40.593Z,58.37
2022-08-25T19:25:11.018Z,65.25
2022-08-25T19:27:40.419Z,64.50
2022-08-25T19:30:12.550Z,62.54
2022-08-25T19:32:43.735Z,61.42
2022-08-25T19:35:37.882Z,60.57
2022-08-25T19:38:33.339Z,60.74
2022-08-25T19:41:13.922Z,58.48
2022-08-25T19:43:56.513Z,57.70
2022-08-25T19:46:35.368Z,63.16
2022-08-25T19:49:27.039Z,62.36
2022-08-25T19:51:57.506Z,63.22
2022-08-25T19:54:38.971Z,62.41
2022-08-25T19:57:27.860Z,62.09
2022-08-25T19:59:57.961Z,62.71
2022-08-25T20:02:29.558Z,62.52
2022-08-25T20:05:00.627Z,61.69
2022-08-25T20:07:32.102Z,61.53
2022-08-25T20:10:01.401Z,61.05
2022-08-25T20:12:30.092Z,61.23
2022-08-25T20:14:58.872Z,62.01
2022-08-25T20:17:28.773Z,60.97
2022-08-25T20:20:01.068Z,60.24
2022-08-25T20:22:33.210Z,60.42
2022-08-25T20:25:16.098Z,60.45
2022-08-25T20:27:52.197Z,60.39
2022-08-25T20:30:26.742Z,60.38
2022-08-25T20:32:59.377Z,60.16
2022-08-25T20:35:28.803Z,60.03
2022-08-25T20:38:00.902Z,60.58
2022-08-25T20:40:30.665Z,60.70
2022-08-25T20:43:04.392Z,60.70
2022-08-25T20:45:32.360Z,61.43
2022-08-25T20:48:05.999Z,60.51
2022-08-25T20:50:37.362Z,61.90
2022-08-25T20:53:10.293Z,61.21
2022-08-25T20:55:43.676Z,60.74
2022-08-25T20:58:12.840Z,60.68
2022-08-25T21:00:44.788Z,61.12
2022-08-25T21:03:14.751Z,61.21
2022-08-25T21:05:43.752Z,61.03
2022-08-25T21:08:16.031Z,59.78
2022-08-25T21:10:46.257Z,60.48
2022-08-25T21:13:18.727Z,60.38
2022-08-25T21:15:48.542Z,59.64
2022-08-25T21:18:16.094Z,56.94
2022-08-25T21:20:44.472Z,57.44
2022-08-25T21:23:14.173Z,59.32
2022-08-25T21:25:42.867Z,65.64
2022-08-25T21:28:34.913Z,65.56
2022-08-25T21:31:07.310Z,63.72
2022-08-25T21:33:36.080Z,63.76
2022-08-25T21:36:09.961Z,62.27
2022-08-25T21:38:39.908Z,61.63
2022-08-25T21:41:40.033Z,61.31
2022-08-25T21:44:13.824Z,60.81
2022-08-25T21:46:53.915Z,61.53
2022-08-25T21:49:23.502Z,61.02
2022-08-25T21:52:00.914Z,60.90
2022-08-25T21:54:31.508Z,59.93
2022-08-25T21:57:05.862Z,59.68
